Terminal Aerodrome Forecast
Issued by NWS

Current Version | Previous Version | Graphics & Text | Print | Product List | Glossary On
Versions: 1 2 3 4 5 6 7 8 9 10 11 12 13 14 15 16 17 18 19 20 21 22 23 24 25 26 27 28
000
FTUS41 KILN 151131
TAFLUK
TAF
KLUK 151131Z 1512/1612 03006KT 4SM -DZ BR OVC007
     FM151400 04004KT P6SM FEW005 OVC028
     FM151800 06006KT P6SM VCSH OVC040
     FM160000 07003KT P6SM VCSH SCT008 OVC040
     FM160400 06003KT 3SM BR OVC006=

USA.gov is the U.S. government's official web portal to all federal, state and local government web resources and services.